sensor_id;sensor_type;location;lat;lon;timestamp;P1;durP1;ratioP1;P2;durP2;ratioP2
17917;SDS011;9084;50.956;3.106;2023-06-22T00:01:17;4.50;;;4.15;;
17917;SDS011;9084;50.956;3.106;2023-06-22T00:03:43;5.03;;;4.63;;
17917;SDS011;9084;50.956;3.106;2023-06-22T00:06:09;5.30;;;4.75;;
17917;SDS011;9084;50.956;3.106;2023-06-22T00:08:37;5.30;;;4.13;;
17917;SDS011;9084;50.956;3.106;2023-06-22T00:11:05;5.88;;;4.70;;
17917;SDS011;9084;50.956;3.106;2023-06-22T00:13:31;4.95;;;4.45;;
17917;SDS011;9084;50.956;3.106;2023-06-22T00:15:59;6.10;;;4.57;;
17917;SDS011;9084;50.956;3.106;2023-06-22T00:18:24;5.93;;;4.60;;
17917;SDS011;9084;50.956;3.106;2023-06-22T00:20:53;4.60;;;4.20;;
17917;SDS011;9084;50.956;3.106;2023-06-22T00:23:22;4.72;;;4.32;;
17917;SDS011;9084;50.956;3.106;2023-06-22T00:25:48;4.90;;;4.43;;
17917;SDS011;9084;50.956;3.106;2023-06-22T00:28:15;4.78;;;4.25;;
17917;SDS011;9084;50.956;3.106;2023-06-22T00:30:42;4.70;;;4.20;;
17917;SDS011;9084;50.956;3.106;2023-06-22T00:33:08;4.65;;;4.30;;
17917;SDS011;9084;50.956;3.106;2023-06-22T00:35:34;4.65;;;4.25;;
17917;SDS011;9084;50.956;3.106;2023-06-22T00:38:01;5.13;;;4.50;;
17917;SDS011;9084;50.956;3.106;2023-06-22T00:40:30;4.38;;;4.05;;
17917;SDS011;9084;50.956;3.106;2023-06-22T00:42:59;5.38;;;4.88;;
17917;SDS011;9084;50.956;3.106;2023-06-22T00:45:25;5.57;;;5.07;;
17917;SDS011;9084;50.956;3.106;2023-06-22T00:47:55;5.97;;;5.38;;
17917;SDS011;9084;50.956;3.106;2023-06-22T00:50:23;6.07;;;4.85;;
17917;SDS011;9084;50.956;3.106;2023-06-22T00:52:56;5.60;;;5.10;;
17917;SDS011;9084;50.956;3.106;2023-06-22T00:55:23;5.60;;;5.05;;
17917;SDS011;9084;50.956;3.106;2023-06-22T00:57:53;5.45;;;5.07;;
17917;SDS011;9084;50.956;3.106;2023-06-22T01:00:25;5.78;;;4.70;;
17917;SDS011;9084;50.956;3.106;2023-06-22T01:02:51;5.20;;;4.63;;
17917;SDS011;9084;50.956;3.106;2023-06-22T01:05:21;5.53;;;5.03;;
17917;SDS011;9084;50.956;3.106;2023-06-22T01:16:37;5.90;;;5.25;;
17917;SDS011;9084;50.956;3.106;2023-06-22T01:22:02;5.43;;;5.03;;
17917;SDS011;9084;50.956;3.106;2023-06-22T01:24:32;5.88;;;4.85;;
17917;SDS011;9084;50.956;3.106;2023-06-22T01:29:50;5.78;;;5.28;;
17917;SDS011;9084;50.956;3.106;2023-06-22T01:32:17;8.63;;;5.68;;
17917;SDS011;9084;50.956;3.106;2023-06-22T01:34:44;5.60;;;5.05;;
17917;SDS011;9084;50.956;3.106;2023-06-22T01:37:11;5.57;;;4.95;;
17917;SDS011;9084;50.956;3.106;2023-06-22T01:39:40;5.60;;;5.15;;
17917;SDS011;9084;50.956;3.106;2023-06-22T01:42:06;5.80;;;5.28;;
17917;SDS011;9084;50.956;3.106;2023-06-22T01:44:32;5.22;;;4.65;;
17917;SDS011;9084;50.956;3.106;2023-06-22T01:46:59;6.13;;;5.63;;
17917;SDS011;9084;50.956;3.106;2023-06-22T01:49:25;6.72;;;4.82;;
17917;SDS011;9084;50.956;3.106;2023-06-22T01:51:51;6.25;;;4.82;;
17917;SDS011;9084;50.956;3.106;2023-06-22T01:54:16;6.32;;;5.82;;
17917;SDS011;9084;50.956;3.106;2023-06-22T01:56:44;5.88;;;5.30;;
17917;SDS011;9084;50.956;3.106;2023-06-22T01:59:27;6.35;;;5.75;;
17917;SDS011;9084;50.956;3.106;2023-06-22T02:02:09;6.07;;;5.57;;
17917;SDS011;9084;50.956;3.106;2023-06-22T02:04:42;5.70;;;5.30;;
17917;SDS011;9084;50.956;3.106;2023-06-22T02:07:13;5.70;;;5.20;;
17917;SDS011;9084;50.956;3.106;2023-06-22T02:09:42;5.68;;;4.95;;
17917;SDS011;9084;50.956;3.106;2023-06-22T02:12:11;5.75;;;5.25;;
17917;SDS011;9084;50.956;3.106;2023-06-22T02:14:41;6.55;;;6.05;;
17917;SDS011;9084;50.956;3.106;2023-06-22T02:17:08;6.65;;;5.93;;
17917;SDS011;9084;50.956;3.106;2023-06-22T02:19:37;8.38;;;5.75;;
17917;SDS011;9084;50.956;3.106;2023-06-22T02:22:08;5.72;;;5.22;;
17917;SDS011;9084;50.956;3.106;2023-06-22T02:24:33;6.05;;;5.45;;
17917;SDS011;9084;50.956;3.106;2023-06-22T02:26:59;8.75;;;6.05;;
17917;SDS011;9084;50.956;3.106;2023-06-22T02:29:26;6.38;;;5.78;;
17917;SDS011;9084;50.956;3.106;2023-06-22T02:31:52;6.53;;;6.03;;
17917;SDS011;9084;50.956;3.106;2023-06-22T02:34:21;6.88;;;6.18;;
17917;SDS011;9084;50.956;3.106;2023-06-22T02:36:47;6.35;;;5.38;;
17917;SDS011;9084;50.956;3.106;2023-06-22T02:41:49;6.82;;;6.10;;
17917;SDS011;9084;50.956;3.106;2023-06-22T02:44:15;7.03;;;6.00;;
17917;SDS011;9084;50.956;3.106;2023-06-22T02:46:46;7.20;;;6.60;;
17917;SDS011;9084;50.956;3.106;2023-06-22T02:49:15;7.93;;;7.18;;
17917;SDS011;9084;50.956;3.106;2023-06-22T02:51:46;7.47;;;6.78;;
17917;SDS011;9084;50.956;3.106;2023-06-22T02:54:13;8.00;;;7.25;;
17917;SDS011;9084;50.956;3.106;2023-06-22T02:56:41;9.13;;;7.18;;
17917;SDS011;9084;50.956;3.106;2023-06-22T02:59:09;7.80;;;7.13;;
17917;SDS011;9084;50.956;3.106;2023-06-22T03:01:35;8.18;;;7.47;;
17917;SDS011;9084;50.956;3.106;2023-06-22T03:04:08;7.40;;;6.70;;
17917;SDS011;9084;50.956;3.106;2023-06-22T03:06:34;8.55;;;7.28;;
17917;SDS011;9084;50.956;3.106;2023-06-22T03:09:04;7.93;;;7.20;;
17917;SDS011;9084;50.956;3.106;2023-06-22T03:11:33;7.50;;;6.80;;
17917;SDS011;9084;50.956;3.106;2023-06-22T03:13:59;8.40;;;7.55;;
17917;SDS011;9084;50.956;3.106;2023-06-22T03:16:26;7.82;;;7.05;;
17917;SDS011;9084;50.956;3.106;2023-06-22T03:18:52;8.20;;;7.38;;
17917;SDS011;9084;50.956;3.106;2023-06-22T03:21:21;8.90;;;7.97;;
17917;SDS011;9084;50.956;3.106;2023-06-22T03:23:50;9.07;;;8.27;;
17917;SDS011;9084;50.956;3.106;2023-06-22T03:26:16;9.18;;;8.38;;
17917;SDS011;9084;50.956;3.106;2023-06-22T03:28:43;8.48;;;7.78;;
17917;SDS011;9084;50.956;3.106;2023-06-22T03:31:11;8.68;;;7.80;;
17917;SDS011;9084;50.956;3.106;2023-06-22T03:33:37;7.78;;;7.03;;
17917;SDS011;9084;50.956;3.106;2023-06-22T03:36:05;6.45;;;5.95;;
17917;SDS011;9084;50.956;3.106;2023-06-22T03:38:33;7.78;;;7.07;;
17917;SDS011;9084;50.956;3.106;2023-06-22T03:41:01;7.20;;;6.30;;
17917;SDS011;9084;50.956;3.106;2023-06-22T03:43:27;8.52;;;6.85;;
17917;SDS011;9084;50.956;3.106;2023-06-22T03:45:52;7.75;;;7.05;;
17917;SDS011;9084;50.956;3.106;2023-06-22T03:48:18;7.13;;;6.45;;
17917;SDS011;9084;50.956;3.106;2023-06-22T03:50:44;7.28;;;6.47;;
17917;SDS011;9084;50.956;3.106;2023-06-22T03:53:11;10.07;;;6.40;;
17917;SDS011;9084;50.956;3.106;2023-06-22T03:55:40;7.57;;;6.90;;
17917;SDS011;9084;50.956;3.106;2023-06-22T03:58:13;7.03;;;6.22;;
17917;SDS011;9084;50.956;3.106;2023-06-22T04:00:38;7.55;;;6.60;;
17917;SDS011;9084;50.956;3.106;2023-06-22T04:03:04;6.95;;;6.28;;
17917;SDS011;9084;50.956;3.106;2023-06-22T04:05:32;6.90;;;6.30;;
17917;SDS011;9084;50.956;3.106;2023-06-22T04:08:00;6.60;;;6.00;;
17917;SDS011;9084;50.956;3.106;2023-06-22T04:10:28;6.15;;;5.65;;
17917;SDS011;9084;50.956;3.106;2023-06-22T04:12:56;6.40;;;5.90;;
17917;SDS011;9084;50.956;3.106;2023-06-22T04:15:22;5.95;;;5.35;;
17917;SDS011;9084;50.956;3.106;2023-06-22T04:17:50;6.68;;;5.28;;
17917;SDS011;9084;50.956;3.106;2023-06-22T04:20:16;6.05;;;5.45;;
17917;SDS011;9084;50.956;3.106;2023-06-22T04:22:46;6.88;;;6.15;;
17917;SDS011;9084;50.956;3.106;2023-06-22T04:25:12;5.60;;;5.10;;
17917;SDS011;9084;50.956;3.106;2023-06-22T04:27:39;6.47;;;5.88;;
17917;SDS011;9084;50.956;3.106;2023-06-22T04:30:07;6.88;;;5.70;;
17917;SDS011;9084;50.956;3.106;2023-06-22T04:32:35;10.02;;;6.50;;
17917;SDS011;9084;50.956;3.106;2023-06-22T04:35:02;6.13;;;5.53;;
17917;SDS011;9084;50.956;3.106;2023-06-22T04:37:29;5.97;;;5.38;;
17917;SDS011;9084;50.956;3.106;2023-06-22T04:39:55;7.50;;;5.90;;
17917;SDS011;9084;50.956;3.106;2023-06-22T04:42:21;6.88;;;5.45;;
17917;SDS011;9084;50.956;3.106;2023-06-22T04:44:49;8.40;;;5.50;;
17917;SDS011;9084;50.956;3.106;2023-06-22T04:47:14;6.07;;;5.30;;
17917;SDS011;9084;50.956;3.106;2023-06-22T04:49:40;6.03;;;4.90;;
17917;SDS011;9084;50.956;3.106;2023-06-22T04:52:08;6.93;;;5.00;;
17917;SDS011;9084;50.956;3.106;2023-06-22T04:54:35;6.18;;;4.90;;
17917;SDS011;9084;50.956;3.106;2023-06-22T04:57:03;4.95;;;4.55;;
17917;SDS011;9084;50.956;3.106;2023-06-22T04:59:35;6.10;;;5.10;;
17917;SDS011;9084;50.956;3.106;2023-06-22T05:02:04;5.32;;;4.78;;
17917;SDS011;9084;50.956;3.106;2023-06-22T05:04:30;4.88;;;4.15;;
17917;SDS011;9084;50.956;3.106;2023-06-22T05:06:56;4.13;;;3.78;;
17917;SDS011;9084;50.956;3.106;2023-06-22T05:09:25;5.65;;;4.15;;
17917;SDS011;9084;50.956;3.106;2023-06-22T05:11:51;3.60;;;3.30;;
17917;SDS011;9084;50.956;3.106;2023-06-22T05:14:17;4.03;;;3.53;;
17917;SDS011;9084;50.956;3.106;2023-06-22T05:16:50;3.50;;;3.20;;
17917;SDS011;9084;50.956;3.106;2023-06-22T05:19:17;6.05;;;3.80;;
17917;SDS011;9084;50.956;3.106;2023-06-22T05:21:42;5.13;;;3.97;;
17917;SDS011;9084;50.956;3.106;2023-06-22T05:24:08;4.70;;;4.30;;
17917;SDS011;9084;50.956;3.106;2023-06-22T05:26:34;4.30;;;3.80;;
17917;SDS011;9084;50.956;3.106;2023-06-22T05:29:01;5.22;;;4.60;;
17917;SDS011;9084;50.956;3.106;2023-06-22T05:31:28;4.90;;;4.40;;
17917;SDS011;9084;50.956;3.106;2023-06-22T05:33:54;5.30;;;4.53;;
17917;SDS011;9084;50.956;3.106;2023-06-22T05:36:21;4.90;;;4.15;;
17917;SDS011;9084;50.956;3.106;2023-06-22T05:38:50;4.30;;;4.00;;
17917;SDS011;9084;50.956;3.106;2023-06-22T05:41:16;4.68;;;3.75;;
17917;SDS011;9084;50.956;3.106;2023-06-22T05:43:42;4.05;;;3.72;;
17917;SDS011;9084;50.956;3.106;2023-06-22T05:46:10;4.43;;;4.03;;
17917;SDS011;9084;50.956;3.106;2023-06-22T05:48:36;4.10;;;3.70;;
17917;SDS011;9084;50.956;3.106;2023-06-22T05:51:04;7.75;;;4.30;;
17917;SDS011;9084;50.956;3.106;2023-06-22T05:53:30;5.93;;;4.15;;
17917;SDS011;9084;50.956;3.106;2023-06-22T05:55:57;4.20;;;3.80;;
17917;SDS011;9084;50.956;3.106;2023-06-22T05:58:23;5.63;;;3.67;;
17917;SDS011;9084;50.956;3.106;2023-06-22T06:00:51;5.13;;;3.97;;
17917;SDS011;9084;50.956;3.106;2023-06-22T06:03:16;3.85;;;3.53;;
17917;SDS011;9084;50.956;3.106;2023-06-22T06:05:42;4.75;;;3.90;;
17917;SDS011;9084;50.956;3.106;2023-06-22T06:08:09;5.35;;;4.32;;
17917;SDS011;9084;50.956;3.106;2023-06-22T06:10:36;4.28;;;3.67;;
17917;SDS011;9084;50.956;3.106;2023-06-22T06:13:02;4.10;;;3.70;;
17917;SDS011;9084;50.956;3.106;2023-06-22T06:15:30;4.10;;;3.65;;
17917;SDS011;9084;50.956;3.106;2023-06-22T06:17:59;4.90;;;4.05;;
17917;SDS011;9084;50.956;3.106;2023-06-22T06:20:27;4.35;;;3.95;;
17917;SDS011;9084;50.956;3.106;2023-06-22T06:22:53;4.70;;;3.40;;
17917;SDS011;9084;50.956;3.106;2023-06-22T06:25:18;4.45;;;3.90;;
17917;SDS011;9084;50.956;3.106;2023-06-22T06:27:49;4.05;;;3.75;;
17917;SDS011;9084;50.956;3.106;2023-06-22T06:30:17;7.80;;;4.50;;
17917;SDS011;9084;50.956;3.106;2023-06-22T06:32:43;4.72;;;4.13;;
17917;SDS011;9084;50.956;3.106;2023-06-22T06:35:11;7.45;;;4.22;;
17917;SDS011;9084;50.956;3.106;2023-06-22T06:37:41;5.25;;;4.00;;
17917;SDS011;9084;50.956;3.106;2023-06-22T06:40:09;4.45;;;4.07;;
17917;SDS011;9084;50.956;3.106;2023-06-22T06:42:36;4.07;;;3.67;;
17917;SDS011;9084;50.956;3.106;2023-06-22T06:45:05;5.45;;;3.63;;
17917;SDS011;9084;50.956;3.106;2023-06-22T06:47:34;4.43;;;3.78;;
17917;SDS011;9084;50.956;3.106;2023-06-22T06:50:03;5.95;;;3.97;;
17917;SDS011;9084;50.956;3.106;2023-06-22T06:52:29;4.97;;;4.32;;
17917;SDS011;9084;50.956;3.106;2023-06-22T06:54:55;4.32;;;3.92;;
17917;SDS011;9084;50.956;3.106;2023-06-22T06:57:25;5.25;;;4.28;;
17917;SDS011;9084;50.956;3.106;2023-06-22T06:59:57;4.63;;;4.20;;
17917;SDS011;9084;50.956;3.106;2023-06-22T07:02:25;5.35;;;4.68;;
17917;SDS011;9084;50.956;3.106;2023-06-22T07:04:54;4.68;;;4.22;;
17917;SDS011;9084;50.956;3.106;2023-06-22T07:07:25;5.13;;;4.50;;
17917;SDS011;9084;50.956;3.106;2023-06-22T07:09:50;4.75;;;4.35;;
17917;SDS011;9084;50.956;3.106;2023-06-22T07:12:16;5.25;;;4.85;;
17917;SDS011;9084;50.956;3.106;2023-06-22T07:14:42;5.40;;;4.88;;
17917;SDS011;9084;50.956;3.106;2023-06-22T07:17:07;5.40;;;4.90;;
17917;SDS011;9084;50.956;3.106;2023-06-22T07:19:35;5.28;;;4.82;;
17917;SDS011;9084;50.956;3.106;2023-06-22T07:22:01;6.60;;;5.72;;
17917;SDS011;9084;50.956;3.106;2023-06-22T07:24:26;6.55;;;6.00;;
17917;SDS011;9084;50.956;3.106;2023-06-22T07:26:54;5.95;;;5.43;;
17917;SDS011;9084;50.956;3.106;2023-06-22T07:29:20;6.38;;;5.78;;
17917;SDS011;9084;50.956;3.106;2023-06-22T07:31:49;6.20;;;5.57;;
17917;SDS011;9084;50.956;3.106;2023-06-22T07:34:18;6.13;;;5.53;;
17917;SDS011;9084;50.956;3.106;2023-06-22T07:36:44;6.55;;;5.88;;
17917;SDS011;9084;50.956;3.106;2023-06-22T07:39:11;6.55;;;5.95;;
17917;SDS011;9084;50.956;3.106;2023-06-22T07:41:37;5.82;;;5.32;;
17917;SDS011;9084;50.956;3.106;2023-06-22T07:44:04;6.32;;;5.68;;
17917;SDS011;9084;50.956;3.106;2023-06-22T07:46:31;6.75;;;5.88;;
17917;SDS011;9084;50.956;3.106;2023-06-22T07:48:59;6.22;;;5.63;;
17917;SDS011;9084;50.956;3.106;2023-06-22T07:51:27;6.93;;;6.22;;
17917;SDS011;9084;50.956;3.106;2023-06-22T07:53:53;6.30;;;5.70;;
17917;SDS011;9084;50.956;3.106;2023-06-22T07:56:18;6.80;;;6.10;;
17917;SDS011;9084;50.956;3.106;2023-06-22T07:58:47;7.10;;;6.47;;
17917;SDS011;9084;50.956;3.106;2023-06-22T08:01:15;7.05;;;6.45;;
17917;SDS011;9084;50.956;3.106;2023-06-22T08:03:42;6.75;;;6.15;;
17917;SDS011;9084;50.956;3.106;2023-06-22T08:06:10;7.15;;;6.45;;
17917;SDS011;9084;50.956;3.106;2023-06-22T08:08:36;7.75;;;7.05;;
17917;SDS011;9084;50.956;3.106;2023-06-22T08:11:02;8.70;;;7.78;;
17917;SDS011;9084;50.956;3.106;2023-06-22T08:13:27;8.05;;;7.25;;
17917;SDS011;9084;50.956;3.106;2023-06-22T08:15:55;8.65;;;7.82;;
17917;SDS011;9084;50.956;3.106;2023-06-22T08:18:21;8.93;;;7.55;;
17917;SDS011;9084;50.956;3.106;2023-06-22T08:20:51;7.88;;;7.13;;
17917;SDS011;9084;50.956;3.106;2023-06-22T08:23:18;7.55;;;6.88;;
17917;SDS011;9084;50.956;3.106;2023-06-22T08:25:44;7.72;;;7.10;;
17917;SDS011;9084;50.956;3.106;2023-06-22T08:28:13;8.25;;;7.45;;
17917;SDS011;9084;50.956;3.106;2023-06-22T08:30:38;8.93;;;7.38;;
17917;SDS011;9084;50.956;3.106;2023-06-22T08:33:09;8.90;;;8.00;;
17917;SDS011;9084;50.956;3.106;2023-06-22T08:35:34;8.60;;;7.75;;
17917;SDS011;9084;50.956;3.106;2023-06-22T08:38:00;8.57;;;7.68;;
17917;SDS011;9084;50.956;3.106;2023-06-22T08:40:27;8.07;;;7.32;;
17917;SDS011;9084;50.956;3.106;2023-06-22T08:42:54;9.40;;;7.72;;
17917;SDS011;9084;50.956;3.106;2023-06-22T08:45:22;8.00;;;7.20;;
17917;SDS011;9084;50.956;3.106;2023-06-22T08:47:50;8.32;;;7.63;;
17917;SDS011;9084;50.956;3.106;2023-06-22T08:50:15;8.18;;;7.35;;
17917;SDS011;9084;50.956;3.106;2023-06-22T08:52:43;8.73;;;8.00;;
17917;SDS011;9084;50.956;3.106;2023-06-22T08:55:11;8.23;;;7.43;;
17917;SDS011;9084;50.956;3.106;2023-06-22T08:57:37;8.73;;;7.93;;
17917;SDS011;9084;50.956;3.106;2023-06-22T09:00:08;7.78;;;7.07;;
17917;SDS011;9084;50.956;3.106;2023-06-22T09:02:41;8.48;;;7.68;;
17917;SDS011;9084;50.956;3.106;2023-06-22T09:05:07;8.43;;;7.63;;
17917;SDS011;9084;50.956;3.106;2023-06-22T09:07:32;7.68;;;7.05;;
17917;SDS011;9084;50.956;3.106;2023-06-22T09:09:59;8.23;;;7.43;;
17917;SDS011;9084;50.956;3.106;2023-06-22T09:12:25;8.38;;;7.60;;
17917;SDS011;9084;50.956;3.106;2023-06-22T09:14:52;9.30;;;8.32;;
17917;SDS011;9084;50.956;3.106;2023-06-22T09:17:18;8.68;;;7.90;;
17917;SDS011;9084;50.956;3.106;2023-06-22T09:19:44;8.13;;;7.43;;
17917;SDS011;9084;50.956;3.106;2023-06-22T09:22:09;9.80;;;8.80;;
17917;SDS011;9084;50.956;3.106;2023-06-22T09:24:35;10.40;;;9.50;;
17917;SDS011;9084;50.956;3.106;2023-06-22T09:27:01;9.43;;;8.60;;
17917;SDS011;9084;50.956;3.106;2023-06-22T09:29:26;10.18;;;9.13;;
17917;SDS011;9084;50.956;3.106;2023-06-22T09:31:58;10.05;;;9.25;;
17917;SDS011;9084;50.956;3.106;2023-06-22T09:34:24;9.93;;;8.93;;
17917;SDS011;9084;50.956;3.106;2023-06-22T09:36:52;8.68;;;7.90;;
17917;SDS011;9084;50.956;3.106;2023-06-22T09:39:20;10.32;;;9.13;;
17917;SDS011;9084;50.956;3.106;2023-06-22T09:41:45;9.90;;;8.98;;
17917;SDS011;9084;50.956;3.106;2023-06-22T09:44:11;10.02;;;9.13;;
17917;SDS011;9084;50.956;3.106;2023-06-22T09:46:37;9.40;;;8.45;;
17917;SDS011;9084;50.956;3.106;2023-06-22T09:49:02;10.73;;;8.48;;
17917;SDS011;9084;50.956;3.106;2023-06-22T09:51:28;9.75;;;8.85;;
17917;SDS011;9084;50.956;3.106;2023-06-22T09:53:54;11.00;;;10.00;;
17917;SDS011;9084;50.956;3.106;2023-06-22T09:56:20;10.20;;;9.20;;
17917;SDS011;9084;50.956;3.106;2023-06-22T09:58:46;8.32;;;7.63;;
17917;SDS011;9084;50.956;3.106;2023-06-22T10:01:17;9.50;;;8.68;;
17917;SDS011;9084;50.956;3.106;2023-06-22T10:03:46;10.50;;;9.52;;
17917;SDS011;9084;50.956;3.106;2023-06-22T10:06:11;8.32;;;7.65;;
17917;SDS011;9084;50.956;3.106;2023-06-22T10:08:37;12.38;;;9.38;;
17917;SDS011;9084;50.956;3.106;2023-06-22T10:11:04;9.43;;;8.55;;
17917;SDS011;9084;50.956;3.106;2023-06-22T10:13:29;9.23;;;8.32;;
17917;SDS011;9084;50.956;3.106;2023-06-22T10:15:55;8.52;;;7.88;;
17917;SDS011;9084;50.956;3.106;2023-06-22T10:18:21;9.63;;;8.63;;
17917;SDS011;9084;50.956;3.106;2023-06-22T10:20:48;9.40;;;8.50;;
17917;SDS011;9084;50.956;3.106;2023-06-22T10:23:17;9.63;;;8.73;;
17917;SDS011;9084;50.956;3.106;2023-06-22T10:25:44;8.00;;;7.30;;
17917;SDS011;9084;50.956;3.106;2023-06-22T10:28:10;9.65;;;8.77;;
17917;SDS011;9084;50.956;3.106;2023-06-22T10:30:35;8.60;;;7.90;;
17917;SDS011;9084;50.956;3.106;2023-06-22T10:33:01;8.45;;;7.75;;
17917;SDS011;9084;50.956;3.106;2023-06-22T10:35:27;9.95;;;9.05;;
17917;SDS011;9084;50.956;3.106;2023-06-22T10:37:54;8.40;;;7.70;;
17917;SDS011;9084;50.956;3.106;2023-06-22T10:40:22;8.73;;;7.82;;
17917;SDS011;9084;50.956;3.106;2023-06-22T10:42:55;8.05;;;7.45;;
17917;SDS011;9084;50.956;3.106;2023-06-22T10:45:26;8.70;;;7.88;;
17917;SDS011;9084;50.956;3.106;2023-06-22T10:47:52;7.93;;;7.22;;
17917;SDS011;9084;50.956;3.106;2023-06-22T10:50:23;9.45;;;8.75;;
17917;SDS011;9084;50.956;3.106;2023-06-22T10:52:52;9.20;;;8.30;;
17917;SDS011;9084;50.956;3.106;2023-06-22T10:55:17;9.10;;;8.20;;
17917;SDS011;9084;50.956;3.106;2023-06-22T10:57:46;9.13;;;8.38;;
17917;SDS011;9084;50.956;3.106;2023-06-22T11:00:12;7.50;;;6.82;;
17917;SDS011;9084;50.956;3.106;2023-06-22T11:02:40;9.50;;;8.60;;
17917;SDS011;9084;50.956;3.106;2023-06-22T11:05:06;8.20;;;7.50;;
17917;SDS011;9084;50.956;3.106;2023-06-22T11:07:32;7.93;;;7.30;;
17917;SDS011;9084;50.956;3.106;2023-06-22T11:09:58;8.35;;;7.53;;
17917;SDS011;9084;50.956;3.106;2023-06-22T11:12:26;7.82;;;7.03;;
17917;SDS011;9084;50.956;3.106;2023-06-22T11:14:54;10.23;;;8.55;;
17917;SDS011;9084;50.956;3.106;2023-06-22T11:17:22;8.80;;;7.90;;
17917;SDS011;9084;50.956;3.106;2023-06-22T11:19:47;7.85;;;7.22;;
17917;SDS011;9084;50.956;3.106;2023-06-22T11:22:13;9.50;;;7.75;;
17917;SDS011;9084;50.956;3.106;2023-06-22T11:24:41;8.30;;;7.50;;
17917;SDS011;9084;50.956;3.106;2023-06-22T11:27:09;9.55;;;8.45;;
17917;SDS011;9084;50.956;3.106;2023-06-22T11:29:37;8.60;;;7.47;;
17917;SDS011;9084;50.956;3.106;2023-06-22T11:32:06;9.07;;;8.27;;
17917;SDS011;9084;50.956;3.106;2023-06-22T11:34:32;8.50;;;7.70;;
17917;SDS011;9084;50.956;3.106;2023-06-22T11:37:00;7.97;;;7.18;;
17917;SDS011;9084;50.956;3.106;2023-06-22T11:39:26;8.45;;;7.65;;
17917;SDS011;9084;50.956;3.106;2023-06-22T11:41:54;7.90;;;7.20;;
17917;SDS011;9084;50.956;3.106;2023-06-22T11:44:22;8.18;;;7.47;;
17917;SDS011;9084;50.956;3.106;2023-06-22T11:46:48;8.52;;;7.40;;
17917;SDS011;9084;50.956;3.106;2023-06-22T11:49:16;10.18;;;8.18;;
17917;SDS011;9084;50.956;3.106;2023-06-22T11:51:43;8.60;;;7.72;;
17917;SDS011;9084;50.956;3.106;2023-06-22T11:54:09;8.70;;;7.95;;
17917;SDS011;9084;50.956;3.106;2023-06-22T11:56:35;9.25;;;7.43;;
17917;SDS011;9084;50.956;3.106;2023-06-22T11:59:00;8.20;;;7.32;;
17917;SDS011;9084;50.956;3.106;2023-06-22T12:01:26;8.25;;;7.55;;
17917;SDS011;9084;50.956;3.106;2023-06-22T12:03:52;8.30;;;7.60;;
17917;SDS011;9084;50.956;3.106;2023-06-22T12:06:17;8.13;;;7.40;;
17917;SDS011;9084;50.956;3.106;2023-06-22T12:08:43;9.25;;;8.35;;
17917;SDS011;9084;50.956;3.106;2023-06-22T12:11:09;9.40;;;8.30;;
17917;SDS011;9084;50.956;3.106;2023-06-22T12:13:34;6.88;;;6.30;;
17917;SDS011;9084;50.956;3.106;2023-06-22T12:16:00;7.50;;;6.90;;
17917;SDS011;9084;50.956;3.106;2023-06-22T12:18:28;10.80;;;9.38;;
17917;SDS011;9084;50.956;3.106;2023-06-22T12:20:56;12.23;;;9.60;;
17917;SDS011;9084;50.956;3.106;2023-06-22T12:23:24;10.93;;;9.02;;
17917;SDS011;9084;50.956;3.106;2023-06-22T12:25:50;10.68;;;9.57;;
17917;SDS011;9084;50.956;3.106;2023-06-22T12:28:20;11.77;;;10.73;;
17917;SDS011;9084;50.956;3.106;2023-06-22T12:30:51;11.45;;;10.55;;
17917;SDS011;9084;50.956;3.106;2023-06-22T12:33:19;12.40;;;10.80;;
17917;SDS011;9084;50.956;3.106;2023-06-22T12:35:47;12.77;;;11.40;;
17917;SDS011;9084;50.956;3.106;2023-06-22T12:38:14;12.02;;;10.85;;
17917;SDS011;9084;50.956;3.106;2023-06-22T12:40:39;11.77;;;10.68;;
17917;SDS011;9084;50.956;3.106;2023-06-22T12:43:07;12.95;;;11.73;;
17917;SDS011;9084;50.956;3.106;2023-06-22T12:45:33;13.63;;;12.52;;
17917;SDS011;9084;50.956;3.106;2023-06-22T12:48:02;14.63;;;13.23;;
17917;SDS011;9084;50.956;3.106;2023-06-22T12:50:27;16.58;;;15.15;;
17917;SDS011;9084;50.956;3.106;2023-06-22T12:52:53;15.75;;;14.35;;
17917;SDS011;9084;50.956;3.106;2023-06-22T12:55:19;17.48;;;15.88;;
17917;SDS011;9084;50.956;3.106;2023-06-22T12:57:47;15.77;;;14.30;;
17917;SDS011;9084;50.956;3.106;2023-06-22T13:00:12;15.30;;;13.82;;
17917;SDS011;9084;50.956;3.106;2023-06-22T13:02:38;15.57;;;14.18;;
17917;SDS011;9084;50.956;3.106;2023-06-22T13:05:07;14.25;;;12.88;;
17917;SDS011;9084;50.956;3.106;2023-06-22T13:07:33;14.85;;;13.27;;
17917;SDS011;9084;50.956;3.106;2023-06-22T13:09:59;14.95;;;13.75;;
17917;SDS011;9084;50.956;3.106;2023-06-22T13:12:25;14.30;;;12.90;;
17917;SDS011;9084;50.956;3.106;2023-06-22T13:14:52;12.68;;;11.50;;
17917;SDS011;9084;50.956;3.106;2023-06-22T13:17:18;12.02;;;10.93;;
17917;SDS011;9084;50.956;3.106;2023-06-22T13:19:44;11.45;;;10.48;;
17917;SDS011;9084;50.956;3.106;2023-06-22T13:22:28;11.38;;;10.38;;
17917;SDS011;9084;50.956;3.106;2023-06-22T13:24:54;11.25;;;10.15;;
17917;SDS011;9084;50.956;3.106;2023-06-22T13:27:23;10.73;;;9.68;;
17917;SDS011;9084;50.956;3.106;2023-06-22T13:29:49;9.80;;;8.90;;
17917;SDS011;9084;50.956;3.106;2023-06-22T13:32:17;9.75;;;8.85;;
17917;SDS011;9084;50.956;3.106;2023-06-22T13:34:45;10.88;;;9.80;;
17917;SDS011;9084;50.956;3.106;2023-06-22T13:37:10;9.77;;;8.85;;
17917;SDS011;9084;50.956;3.106;2023-06-22T13:39:38;9.30;;;8.48;;
17917;SDS011;9084;50.956;3.106;2023-06-22T13:42:07;9.68;;;8.73;;
17917;SDS011;9084;50.956;3.106;2023-06-22T13:44:37;9.82;;;8.93;;
17917;SDS011;9084;50.956;3.106;2023-06-22T13:47:03;9.63;;;8.82;;
17917;SDS011;9084;50.956;3.106;2023-06-22T13:49:29;9.95;;;9.05;;
17917;SDS011;9084;50.956;3.106;2023-06-22T13:51:58;10.52;;;9.65;;
17917;SDS011;9084;50.956;3.106;2023-06-22T13:54:24;10.52;;;9.63;;
17917;SDS011;9084;50.956;3.106;2023-06-22T13:56:50;11.75;;;10.65;;
17917;SDS011;9084;50.956;3.106;2023-06-22T13:59:18;11.63;;;10.52;;
17917;SDS011;9084;50.956;3.106;2023-06-22T14:01:44;11.38;;;10.38;;
17917;SDS011;9084;50.956;3.106;2023-06-22T14:04:10;11.85;;;10.85;;
17917;SDS011;9084;50.956;3.106;2023-06-22T14:06:36;11.45;;;10.32;;
17917;SDS011;9084;50.956;3.106;2023-06-22T14:09:02;10.23;;;9.32;;
17917;SDS011;9084;50.956;3.106;2023-06-22T14:11:28;9.70;;;8.80;;
17917;SDS011;9084;50.956;3.106;2023-06-22T14:13:56;9.32;;;8.50;;
17917;SDS011;9084;50.956;3.106;2023-06-22T14:16:22;7.53;;;6.90;;
17917;SDS011;9084;50.956;3.106;2023-06-22T14:18:49;7.88;;;7.18;;
17917;SDS011;9084;50.956;3.106;2023-06-22T14:21:15;9.07;;;7.55;;
17917;SDS011;9084;50.956;3.106;2023-06-22T14:23:41;9.70;;;8.93;;
17917;SDS011;9084;50.956;3.106;2023-06-22T14:26:06;9.77;;;8.88;;
17917;SDS011;9084;50.956;3.106;2023-06-22T14:28:32;8.82;;;8.02;;
17917;SDS011;9084;50.956;3.106;2023-06-22T14:31:00;9.52;;;8.60;;
17917;SDS011;9084;50.956;3.106;2023-06-22T14:33:28;8.70;;;7.82;;
17917;SDS011;9084;50.956;3.106;2023-06-22T14:35:54;9.40;;;7.82;;
17917;SDS011;9084;50.956;3.106;2023-06-22T14:38:19;9.13;;;8.32;;
17917;SDS011;9084;50.956;3.106;2023-06-22T14:40:46;9.68;;;8.65;;
17917;SDS011;9084;50.956;3.106;2023-06-22T14:43:14;10.15;;;8.48;;
17917;SDS011;9084;50.956;3.106;2023-06-22T14:45:42;8.63;;;7.93;;
17917;SDS011;9084;50.956;3.106;2023-06-22T14:48:10;9.38;;;8.57;;
17917;SDS011;9084;50.956;3.106;2023-06-22T14:50:36;8.60;;;7.75;;
17917;SDS011;9084;50.956;3.106;2023-06-22T14:53:01;8.35;;;7.55;;
17917;SDS011;9084;50.956;3.106;2023-06-22T14:55:27;7.85;;;7.22;;
17917;SDS011;9084;50.956;3.106;2023-06-22T14:57:53;7.55;;;6.93;;
17917;SDS011;9084;50.956;3.106;2023-06-22T15:00:21;7.50;;;6.80;;
17917;SDS011;9084;50.956;3.106;2023-06-22T15:02:46;8.52;;;7.78;;
17917;SDS011;9084;50.956;3.106;2023-06-22T15:05:14;7.05;;;6.45;;
17917;SDS011;9084;50.956;3.106;2023-06-22T15:07:42;8.25;;;7.05;;
17917;SDS011;9084;50.956;3.106;2023-06-22T15:10:08;7.88;;;7.20;;
17917;SDS011;9084;50.956;3.106;2023-06-22T15:12:34;7.28;;;6.68;;
17917;SDS011;9084;50.956;3.106;2023-06-22T15:15:03;7.13;;;6.50;;